EFKK/KOK METAR and TAF weather

Enter ICAO airport designator
Station Type Date Time Source
EFKK METAR 2018/12/10 19:50 UTC NOAA

EFKK 101950Z AUTO 03004KT 9999 OVC009 01/00 Q1007


Station Type Date Time Source
EFKK Decoded METAR 2018/12/10 19:50 UTC NOAA

Kruunupyy, Finland (EFKK) 63-43N 023-09E
Dec 10, 2018 - 02:50 PM EST / 2018.12.10 1950 UTC
Wind: from the NNE (030 degrees) at 5 MPH (4 KT):0
Visibility: greater than 7 mile(s):0
Sky conditions: overcast
Temperature: 33 F (1 C)
Windchill: 28 F (-2 C):1
Dew Point: 32 F (0 C)
Relative Humidity: 93%
Pressure (altimeter): 29.74 in. Hg (1007 hPa)
ob: EFKK 101950Z AUTO 03004KT 9999 OVC009 01/00 Q1007
cycle: 20

Station Type Date Time Source
EFKK TAF 2013/12/22 09:42 UTC NOAA

TAF EFKK 220834Z 2209/2221 20009KT 9999 OVC007
TEMPO 2209/2211 6000 -DZ BKN003
BECMG 2211/2213 6000 RA
TEMPO 2213/2221 BKN011


Example: see airport list